Time;durP1;ratioP1;P1;durP2;ratioP2;P2;SDS_P1;SDS_P2;PMS_P1;PMS_P2;Temp;Humidity;BMP_temperature;BMP_pressure;BME280_temperature;BME280_humidity;BME280_pressure;Samples;Min_cycle;Max_cycle;Signal;HPM_P1;HPM_P2
2020/12/19 00:02:11;;;;;;;38.88;17.08;;;1.70;99.90;;;;;;4923197;29;20515;-70
2020/12/19 00:04:37;;;;;;;33.80;15.02;;;1.60;99.90;;;;;;4923167;29;20055;-70
2020/12/19 00:07:03;;;;;;;34.63;15.75;;;1.60;99.90;;;;;;4924122;29;20039;-71
2020/12/19 00:09:29;;;;;;;39.03;17.77;;;1.60;99.90;;;;;;4941165;29;20050;-70
2020/12/19 00:11:55;;;;;;;42.53;17.65;;;1.60;99.90;;;;;;4926653;29;20587;-70
2020/12/19 00:14:22;;;;;;;39.20;17.50;;;1.70;99.90;;;;;;4925871;29;20107;-70
2020/12/19 00:16:48;;;;;;;37.45;16.95;;;1.70;99.90;;;;;;4925616;29;20023;-70
2020/12/19 00:19:14;;;;;;;43.33;17.20;;;1.70;99.90;;;;;;4926127;29;20043;-70
2020/12/19 00:21:39;;;;;;;40.40;17.00;;;1.70;99.90;;;;;;4925994;29;20083;-70
2020/12/19 00:24:06;;;;;;;38.70;16.67;;;1.70;99.90;;;;;;4941264;28;20791;-70
2020/12/19 00:26:39;;;;;;;38.60;16.52;;;1.70;99.90;;;;;;4925622;29;20744;-70
2020/12/19 00:29:07;;;;;;;36.45;16.02;;;1.70;99.90;;;;;;4941239;29;20063;-70
2020/12/19 00:31:33;;;;;;;37.03;16.00;;;1.70;99.90;;;;;;4926058;29;20163;-71
2020/12/19 00:33:59;;;;;;;33.10;15.27;;;1.60;99.90;;;;;;4926196;29;20040;-70
2020/12/19 00:36:25;;;;;;;37.65;17.58;;;1.60;99.90;;;;;;4939484;28;20039;-70
2020/12/19 00:38:51;;;;;;;40.13;16.70;;;1.60;99.90;;;;;;4925938;29;20043;-70
2020/12/19 00:41:19;;;;;;;37.08;16.00;;;1.70;99.90;;;;;;4925766;29;20035;-70
2020/12/19 00:43:45;;;;;;;36.97;16.75;;;1.70;99.90;;;;;;4925921;29;20587;-70
2020/12/19 00:46:15;;;;;;;38.28;16.33;;;1.60;99.90;;;;;;4924812;29;20039;-70
2020/12/19 00:48:41;;;;;;;39.45;16.38;;;1.60;99.90;;;;;;4925961;29;20131;-70
2020/12/19 00:51:12;;;;;;;35.40;16.45;;;1.60;99.90;;;;;;4925172;29;20031;-70
2020/12/19 00:53:37;;;;;;;36.65;17.30;;;1.70;99.90;;;;;;4925893;29;20122;-70
2020/12/19 00:56:03;;;;;;;36.53;15.75;;;1.70;99.90;;;;;;4924787;29;20135;-70
2020/12/19 00:58:29;;;;;;;34.90;16.65;;;1.60;99.90;;;;;;4923937;29;20028;-70
2020/12/19 01:00:54;;;;;;;39.47;17.65;;;1.60;99.90;;;;;;4939808;28;20063;-70
2020/12/19 01:03:20;;;;;;;37.97;16.85;;;1.60;99.90;;;;;;4925625;29;20039;-70
2020/12/19 01:05:45;;;;;;;34.47;15.88;;;1.60;99.90;;;;;;4924640;29;20047;-70
2020/12/19 01:08:11;;;;;;;36.05;15.82;;;1.60;99.90;;;;;;4925431;29;20046;-70
2020/12/19 01:10:37;;;;;;;39.45;16.23;;;1.60;99.90;;;;;;4923857;29;20036;-70
2020/12/19 01:13:02;;;;;;;37.35;16.65;;;1.60;99.90;;;;;;4939217;29;20163;-70
2020/12/19 01:15:28;;;;;;;38.95;16.67;;;1.50;99.90;;;;;;4924215;29;20495;-70
2020/12/19 01:17:54;;;;;;;35.95;16.67;;;1.50;99.90;;;;;;4923983;29;20122;-70
2020/12/19 01:20:20;;;;;;;42.80;18.00;;;1.60;99.90;;;;;;4938374;29;20039;-70
2020/12/19 01:22:46;;;;;;;36.30;17.15;;;1.60;99.90;;;;;;4924163;29;20087;-70
2020/12/19 01:25:11;;;;;;;40.58;17.58;;;1.60;99.90;;;;;;4923838;29;20681;-70
2020/12/19 01:27:37;;;;;;;38.17;16.23;;;1.60;99.90;;;;;;4924751;29;20087;-70
2020/12/19 01:30:04;;;;;;;39.97;16.35;;;1.60;99.90;;;;;;4924930;29;20036;-69
2020/12/19 01:32:30;;;;;;;44.35;18.48;;;1.60;99.90;;;;;;4924455;29;20063;-70
2020/12/19 01:34:55;;;;;;;37.13;16.85;;;1.70;99.90;;;;;;4924281;29;20123;-70
2020/12/19 01:37:21;;;;;;;37.15;17.23;;;1.70;99.90;;;;;;4924014;29;20031;-70
2020/12/19 01:39:47;;;;;;;35.00;17.63;;;1.70;99.90;;;;;;4924334;29;20799;-70
2020/12/19 01:42:12;;;;;;;33.97;16.48;;;1.70;99.90;;;;;;4923673;29;20102;-70
2020/12/19 01:44:38;;;;;;;34.53;16.10;;;1.70;99.90;;;;;;4924478;29;20464;-70
2020/12/19 01:47:09;;;;;;;38.95;17.38;;;1.70;99.90;;;;;;4923629;29;20035;-70
2020/12/19 01:49:35;;;;;;;45.35;18.27;;;1.70;99.90;;;;;;4923198;29;20047;-69
2020/12/19 01:52:03;;;;;;;38.50;18.10;;;1.80;99.90;;;;;;4923906;29;20050;-70
2020/12/19 01:54:29;;;;;;;41.90;18.85;;;1.90;99.90;;;;;;4938933;29;20043;-70
2020/12/19 01:56:57;;;;;;;40.03;17.65;;;2.00;99.90;;;;;;4922858;29;20105;-70
2020/12/19 01:59:24;;;;;;;32.15;15.70;;;1.90;99.90;;;;;;4923563;29;20031;-69
2020/12/19 02:01:51;;;;;;;34.03;16.92;;;2.00;99.90;;;;;;4923608;29;20043;-70
2020/12/19 02:04:18;;;;;;;38.88;17.95;;;2.00;99.90;;;;;;4938533;28;20559;-70
2020/12/19 02:06:46;;;;;;;34.53;16.52;;;2.00;99.90;;;;;;4924626;29;20054;-70
2020/12/19 02:09:14;;;;;;;37.88;17.42;;;2.00;99.90;;;;;;4923600;29;20166;-70
2020/12/19 02:11:42;;;;;;;41.25;17.15;;;2.10;99.90;;;;;;4922921;29;20034;-68
2020/12/19 02:14:08;;;;;;;35.78;16.25;;;2.20;99.90;;;;;;4921801;29;20040;-69
2020/12/19 02:16:35;;;;;;;34.83;16.98;;;2.10;99.90;;;;;;4923092;29;20038;-69
2020/12/19 02:19:01;;;;;;;37.90;17.10;;;2.20;99.90;;;;;;4922301;29;20047;-70
2020/12/19 02:21:26;;;;;;;33.60;16.50;;;2.10;99.90;;;;;;4923359;29;20138;-70
2020/12/19 02:23:52;;;;;;;35.42;17.02;;;2.20;99.90;;;;;;4922355;29;20054;-70
2020/12/19 02:26:18;;;;;;;34.55;16.17;;;2.30;99.90;;;;;;4922457;29;20036;-70
2020/12/19 02:28:44;;;;;;;41.60;17.02;;;2.30;99.90;;;;;;4923520;29;20869;-70
2020/12/19 02:31:09;;;;;;;36.22;16.38;;;2.30;99.90;;;;;;4922799;29;20496;-71
2020/12/19 02:33:35;;;;;;;34.80;17.50;;;2.20;99.90;;;;;;4922229;29;20382;-70
2020/12/19 02:36:01;;;;;;;36.47;16.98;;;2.30;99.90;;;;;;4922727;29;20892;-70
2020/12/19 02:38:26;;;;;;;35.83;16.23;;;2.30;99.90;;;;;;4923287;29;20028;-70
2020/12/19 02:40:52;;;;;;;31.20;15.27;;;2.30;99.90;;;;;;4922625;29;20224;-70
2020/12/19 02:43:18;;;;;;;36.17;16.20;;;2.30;99.90;;;;;;4922939;29;20048;-70
2020/12/19 02:45:43;;;;;;;38.88;16.45;;;2.30;99.90;;;;;;4923698;29;20039;-70
2020/12/19 02:48:09;;;;;;;36.70;17.50;;;2.20;99.90;;;;;;4922733;29;20036;-70
2020/12/19 02:50:35;;;;;;;37.83;17.52;;;2.10;99.90;;;;;;4922947;29;20098;-70
2020/12/19 02:53:01;;;;;;;33.00;16.85;;;2.20;99.90;;;;;;4922385;29;20561;-70
2020/12/19 02:55:26;;;;;;;35.20;16.73;;;2.10;99.90;;;;;;4921958;29;20035;-70
2020/12/19 02:57:52;;;;;;;34.22;15.90;;;2.20;99.90;;;;;;4922782;29;20036;-70
2020/12/19 03:00:18;;;;;;;31.42;15.98;;;2.20;99.90;;;;;;4922152;29;20123;-70
2020/12/19 03:02:43;;;;;;;37.85;16.05;;;2.10;99.90;;;;;;4921002;29;20042;-70
2020/12/19 03:05:09;;;;;;;35.85;16.45;;;2.10;99.90;;;;;;4922103;29;20035;-70
2020/12/19 03:07:35;;;;;;;34.95;15.40;;;2.10;99.90;;;;;;4922940;29;20087;-70
2020/12/19 03:10:00;;;;;;;34.92;16.98;;;2.20;99.90;;;;;;4922314;29;20093;-70
2020/12/19 03:12:26;;;;;;;36.20;16.67;;;2.30;99.90;;;;;;4922656;29;20036;-71
2020/12/19 03:14:52;;;;;;;31.75;15.75;;;2.20;99.90;;;;;;4924428;29;20036;-70
2020/12/19 03:17:17;;;;;;;36.35;16.83;;;2.20;99.90;;;;;;4922466;29;20245;-70
2020/12/19 03:19:43;;;;;;;37.17;16.27;;;2.20;99.90;;;;;;4923698;29;20067;-70
2020/12/19 03:22:09;;;;;;;38.90;16.88;;;2.20;99.90;;;;;;4922769;29;20031;-70
2020/12/19 03:24:34;;;;;;;38.42;15.63;;;2.10;99.90;;;;;;4922666;29;20122;-70
2020/12/19 03:27:00;;;;;;;31.08;15.25;;;2.10;99.90;;;;;;4922286;29;20054;-70
2020/12/19 03:29:26;;;;;;;34.85;15.88;;;2.00;99.90;;;;;;4924521;29;20047;-70
2020/12/19 03:31:51;;;;;;;35.47;17.05;;;2.00;99.90;;;;;;4937464;29;20051;-70
2020/12/19 03:34:17;;;;;;;33.38;16.75;;;1.90;99.90;;;;;;4922733;29;20841;-70
2020/12/19 03:36:43;;;;;;;34.05;16.00;;;1.90;99.90;;;;;;4922579;29;20165;-70
2020/12/19 03:39:08;;;;;;;35.03;16.75;;;1.90;99.90;;;;;;4922557;29;20034;-69
2020/12/19 03:41:34;;;;;;;38.70;16.95;;;1.90;99.90;;;;;;4920988;29;20401;-69
2020/12/19 03:44:00;;;;;;;34.55;16.50;;;1.90;99.90;;;;;;4920710;29;20055;-70
2020/12/19 03:46:25;;;;;;;38.33;16.77;;;2.00;99.90;;;;;;4921363;29;20031;-70
2020/12/19 03:48:51;;;;;;;38.25;16.52;;;2.00;99.90;;;;;;4921678;29;20047;-70
2020/12/19 03:51:17;;;;;;;39.38;16.55;;;2.00;99.90;;;;;;4922298;29;20039;-70
2020/12/19 03:53:42;;;;;;;37.20;16.73;;;1.90;99.90;;;;;;4921828;29;20028;-70
2020/12/19 03:56:08;;;;;;;36.15;16.65;;;1.90;99.90;;;;;;4921335;29;20048;-70
2020/12/19 03:58:34;;;;;;;35.17;15.93;;;1.90;99.90;;;;;;4922402;29;20135;-70
2020/12/19 04:00:59;;;;;;;37.92;16.83;;;1.90;99.90;;;;;;4922673;29;20028;-69
2020/12/19 04:03:25;;;;;;;33.20;15.80;;;1.80;99.90;;;;;;4921359;29;20043;-70
2020/12/19 04:05:51;;;;;;;34.95;16.83;;;1.80;99.90;;;;;;4922543;29;20119;-70
2020/12/19 04:08:16;;;;;;;37.28;15.82;;;1.80;99.90;;;;;;4923251;29;20036;-70
2020/12/19 04:10:42;;;;;;;37.78;17.08;;;1.70;99.90;;;;;;4917122;29;20067;-70
2020/12/19 04:13:08;;;;;;;36.65;16.40;;;1.60;99.90;;;;;;4925383;29;20091;-70
2020/12/19 04:15:33;;;;;;;39.13;17.38;;;1.60;99.90;;;;;;4922315;29;20475;-70
2020/12/19 04:17:59;;;;;;;43.75;18.98;;;1.70;99.90;;;;;;4922846;29;20042;-70
2020/12/19 04:20:25;;;;;;;38.70;17.50;;;1.70;99.90;;;;;;4921364;29;20047;-70
2020/12/19 04:22:51;;;;;;;36.83;15.15;;;1.60;99.90;;;;;;4922921;29;20110;-70
2020/12/19 04:25:16;;;;;;;35.95;16.48;;;1.60;99.90;;;;;;4921287;29;20111;-70
2020/12/19 04:27:42;;;;;;;36.75;16.75;;;1.50;99.90;;;;;;4916488;29;20031;-70
2020/12/19 04:30:09;;;;;;;36.28;16.08;;;1.40;99.90;;;;;;4922226;29;20044;-70
2020/12/19 04:32:36;;;;;;;39.42;17.38;;;1.50;99.90;;;;;;4922024;29;20083;-70
2020/12/19 04:35:03;;;;;;;41.17;17.27;;;1.50;99.90;;;;;;4921716;29;20648;-70
2020/12/19 04:37:28;;;;;;;40.60;17.92;;;1.50;99.90;;;;;;4922443;29;20046;-69
2020/12/19 04:39:54;;;;;;;33.42;16.35;;;1.50;99.90;;;;;;4922475;29;20027;-69
2020/12/19 04:42:21;;;;;;;42.85;16.92;;;1.50;99.90;;;;;;4922309;29;20031;-69
2020/12/19 04:44:48;;;;;;;38.15;17.23;;;1.50;99.90;;;;;;4922087;29;20556;-69
2020/12/19 04:47:14;;;;;;;37.95;16.75;;;1.50;99.90;;;;;;4921388;29;20823;-69
2020/12/19 04:49:42;;;;;;;39.60;16.15;;;1.50;99.90;;;;;;4937163;29;20071;-69
2020/12/19 04:52:08;;;;;;;36.47;16.10;;;1.40;99.90;;;;;;4922574;29;20044;-69
2020/12/19 04:54:35;;;;;;;38.13;16.55;;;1.40;99.90;;;;;;4924800;29;20043;-69
2020/12/19 04:57:02;;;;;;;47.65;18.10;;;1.40;99.90;;;;;;4925298;29;20896;-69
2020/12/19 04:59:28;;;;;;;46.47;18.30;;;1.50;99.90;;;;;;4925169;29;20031;-69
2020/12/19 05:01:54;;;;;;;41.67;17.77;;;1.50;99.90;;;;;;4925261;29;20044;-69
2020/12/19 05:04:20;;;;;;;39.78;17.15;;;1.40;99.90;;;;;;4925231;29;20042;-69
2020/12/19 05:06:46;;;;;;;42.35;18.23;;;1.50;99.90;;;;;;4924541;29;20109;-69
2020/12/19 05:09:12;;;;;;;43.20;18.40;;;1.60;99.90;;;;;;4924965;29;20059;-70
2020/12/19 05:11:38;;;;;;;43.00;17.55;;;1.60;99.90;;;;;;4925277;29;20098;-69
2020/12/19 05:14:07;;;;;;;33.85;16.50;;;1.70;99.90;;;;;;4924881;29;20044;-69
2020/12/19 05:16:34;;;;;;;38.63;16.30;;;1.70;99.90;;;;;;4922321;29;20106;-69
2020/12/19 05:19:08;;;;;;;42.30;18.38;;;1.60;99.90;;;;;;4925126;29;20070;-69
2020/12/19 05:21:44;;;;;;;40.13;16.67;;;1.60;99.90;;;;;;4923785;29;20433;-70
2020/12/19 05:24:27;;;;;;;39.58;17.60;;;1.60;99.90;;;;;;4924701;29;20132;-69
2020/12/19 05:26:53;;;;;;;39.33;16.98;;;1.60;99.90;;;;;;4924073;29;20110;-68
2020/12/19 05:29:20;;;;;;;37.40;15.90;;;1.50;99.90;;;;;;4924640;29;20035;-69
2020/12/19 05:31:56;;;;;;;39.80;16.90;;;1.50;99.90;;;;;;4924479;29;20043;-68
2020/12/19 05:34:22;;;;;;;36.60;15.98;;;1.40;99.90;;;;;;4925024;29;20028;-68
2020/12/19 05:36:52;;;;;;;37.22;16.83;;;1.40;99.90;;;;;;4924249;29;20479;-67
2020/12/19 05:39:18;;;;;;;40.03;17.05;;;1.40;99.90;;;;;;4924329;29;20038;-68
2020/12/19 05:41:46;;;;;;;36.78;16.55;;;1.40;99.90;;;;;;4924990;29;20063;-68
2020/12/19 05:44:13;;;;;;;42.92;16.23;;;1.40;99.90;;;;;;4926388;29;20086;-68
2020/12/19 05:46:40;;;;;;;41.90;18.55;;;1.40;99.90;;;;;;4923754;29;20039;-68
2020/12/19 05:49:09;;;;;;;36.95;16.02;;;1.40;99.90;;;;;;4925139;29;20787;-68
2020/12/19 05:51:36;;;;;;;37.08;16.42;;;1.40;99.90;;;;;;4923646;29;20042;-68
2020/12/19 05:54:04;;;;;;;36.38;15.82;;;1.50;99.90;;;;;;4924622;29;20835;-68
2020/12/19 05:56:41;;;;;;;38.60;15.98;;;1.40;99.90;;;;;;4923876;29;20071;-68
2020/12/19 05:59:15;;;;;;;39.00;17.15;;;1.50;99.90;;;;;;4924166;29;20035;-67
2020/12/19 06:01:42;;;;;;;49.35;20.17;;;1.50;99.90;;;;;;4938332;29;20035;-71
2020/12/19 06:04:09;;;;;;;43.50;19.23;;;1.50;99.90;;;;;;4923828;29;20089;-71
2020/12/19 06:06:43;;;;;;;44.03;17.67;;;1.60;99.90;;;;;;4923593;29;20039;-70
2020/12/19 06:09:11;;;;;;;43.17;19.15;;;1.60;99.90;;;;;;4923850;29;20781;-69
2020/12/19 06:12:12;;;;;;;38.83;16.90;;;1.80;99.90;;;;;;4924237;29;20036;-69
2020/12/19 06:14:43;;;;;;;40.90;16.77;;;1.90;99.90;;;;;;4923523;29;20127;-69
2020/12/19 06:17:19;;;;;;;39.72;15.57;;;2.00;99.90;;;;;;4937897;28;20811;-69
2020/12/19 06:19:47;;;;;;;37.80;16.27;;;2.00;99.90;;;;;;4928709;29;20075;-68
2020/12/19 06:22:13;;;;;;;39.28;16.40;;;1.90;99.90;;;;;;4923658;29;20028;-68
2020/12/19 06:24:47;;;;;;;32.60;13.85;;;1.90;99.90;;;;;;4924324;29;20071;-68
2020/12/19 06:27:22;;;;;;;36.20;16.23;;;1.90;99.90;;;;;;4923019;29;20640;-69
2020/12/19 06:29:48;;;;;;;34.55;15.32;;;1.90;99.90;;;;;;4937690;28;20036;-68
2020/12/19 06:32:25;;;;;;;33.35;14.75;;;1.90;99.90;;;;;;4923598;29;20036;-71
2020/12/19 06:35:11;;;;;;;32.58;14.52;;;1.90;99.90;;;;;;4918479;29;20043;-69
2020/12/19 06:37:40;;;;;;;35.88;15.30;;;1.90;99.90;;;;;;4922238;29;20075;-68
2020/12/19 06:40:13;;;;;;;34.25;15.00;;;1.90;99.90;;;;;;4938196;28;20031;-68
2020/12/19 06:42:39;;;;;;;40.15;15.77;;;1.90;99.90;;;;;;4923334;29;20044;-69
2020/12/19 06:45:25;;;;;;;35.03;15.32;;;1.90;99.90;;;;;;4922110;29;20654;-68
2020/12/19 06:47:51;;;;;;;33.80;14.45;;;1.90;99.90;;;;;;4918015;29;20130;-68
2020/12/19 06:50:18;;;;;;;34.65;14.48;;;2.00;99.90;;;;;;4923085;29;20039;-68
2020/12/19 06:52:59;;;;;;;38.33;15.25;;;1.90;99.90;;;;;;4916872;29;20793;-69
2020/12/19 06:55:29;;;;;;;34.05;14.55;;;1.90;99.90;;;;;;4922037;29;20040;-69
2020/12/19 06:57:59;;;;;;;37.50;15.32;;;2.00;99.90;;;;;;4922836;29;20039;-68
2020/12/19 07:00:28;;;;;;;36.05;15.00;;;2.00;99.90;;;;;;4922041;29;20110;-69
2020/12/19 07:02:58;;;;;;;42.13;19.65;;;2.00;99.90;;;;;;4923144;29;20039;-70
2020/12/19 07:05:26;;;;;;;33.55;14.80;;;2.00;99.90;;;;;;4922457;29;20035;-69
2020/12/19 07:07:53;;;;;;;33.83;15.02;;;2.00;99.90;;;;;;4923023;29;20032;-68
2020/12/19 07:10:37;;;;;;;36.65;15.07;;;1.90;99.90;;;;;;4923611;29;20094;-69
2020/12/19 07:13:02;;;;;;;33.90;15.65;;;1.90;99.90;;;;;;4926776;29;20063;-69
2020/12/19 07:15:47;;;;;;;33.78;14.27;;;2.00;99.90;;;;;;4925402;29;20082;-69
2020/12/19 07:18:29;;;;;;;35.50;15.77;;;2.10;99.90;;;;;;4926278;29;20035;-69
2020/12/19 07:21:00;;;;;;;33.47;14.90;;;2.10;99.90;;;;;;4940729;29;20035;-69
2020/12/19 07:23:26;;;;;;;34.75;14.60;;;2.10;99.90;;;;;;4940249;29;20035;-69
2020/12/19 07:25:52;;;;;;;35.28;14.40;;;2.10;99.90;;;;;;4925674;29;20137;-69
2020/12/19 07:28:18;;;;;;;32.03;13.60;;;2.00;99.90;;;;;;4924791;29;20566;-69
2020/12/19 07:30:44;;;;;;;32.28;14.85;;;2.00;99.90;;;;;;4926054;29;20035;-69
2020/12/19 07:33:10;;;;;;;37.25;16.27;;;2.00;99.90;;;;;;4925848;29;20031;-69
2020/12/19 07:35:36;;;;;;;33.60;14.68;;;2.10;99.90;;;;;;4926823;29;20154;-69
2020/12/19 07:38:03;;;;;;;30.20;13.45;;;2.10;99.90;;;;;;4926444;29;20115;-69
2020/12/19 07:40:29;;;;;;;31.70;14.55;;;2.00;99.90;;;;;;4926769;29;20175;-70
2020/12/19 07:43:10;;;;;;;30.67;13.93;;;2.10;99.90;;;;;;4941508;29;20050;-70
2020/12/19 07:45:36;;;;;;;33.22;14.10;;;2.10;99.90;;;;;;4925333;29;20824;-70
2020/12/19 07:48:03;;;;;;;28.75;13.77;;;2.10;99.90;;;;;;4926461;29;20035;-69
2020/12/19 07:50:31;;;;;;;33.20;14.05;;;2.20;99.90;;;;;;4925612;29;20052;-69
2020/12/19 07:53:01;;;;;;;31.55;13.80;;;2.30;99.90;;;;;;4926181;29;20031;-69
2020/12/19 07:55:27;;;;;;;31.45;13.80;;;2.30;99.90;;;;;;4923437;29;20031;-69
2020/12/19 07:57:54;;;;;;;30.85;13.90;;;2.50;99.90;;;;;;4926165;29;20114;-69
2020/12/19 08:00:21;;;;;;;30.30;13.73;;;2.50;99.90;;;;;;4925058;29;20040;-72
2020/12/19 08:02:47;;;;;;;30.13;13.05;;;2.50;99.90;;;;;;4925797;29;20131;-71
2020/12/19 08:05:13;;;;;;;27.27;12.35;;;2.60;99.90;;;;;;4925748;29;20118;-71
2020/12/19 08:07:38;;;;;;;27.92;13.40;;;2.70;99.90;;;;;;4925941;29;20111;-71
2020/12/19 08:10:14;;;;;;;25.60;12.32;;;2.70;99.90;;;;;;4941187;29;20052;-70
2020/12/19 08:12:40;;;;;;;30.92;13.98;;;2.80;99.90;;;;;;4924564;29;20028;-70
2020/12/19 08:15:11;;;;;;;29.77;12.70;;;2.90;99.90;;;;;;4938647;28;20556;-70
2020/12/19 08:17:45;;;;;;;29.05;12.57;;;3.00;99.90;;;;;;4927300;29;20732;-70
2020/12/19 08:20:11;;;;;;;23.17;11.80;;;3.00;99.90;;;;;;4943254;28;20091;-70
2020/12/19 08:22:37;;;;;;;25.30;11.80;;;3.10;99.90;;;;;;4924781;29;20042;-70
2020/12/19 08:25:03;;;;;;;27.17;12.70;;;3.20;99.90;;;;;;4926121;29;20142;-70
2020/12/19 08:27:50;;;;;;;24.10;11.90;;;3.30;99.90;;;;;;4927296;29;20138;-70
2020/12/19 08:30:17;;;;;;;23.92;10.57;;;3.30;99.90;;;;;;4929405;29;20067;-71
2020/12/19 08:32:59;;;;;;;22.92;11.07;;;3.40;99.90;;;;;;4924286;29;20032;-70
2020/12/19 08:35:32;;;;;;;24.73;11.40;;;3.40;99.90;;;;;;4944077;28;20044;-70
2020/12/19 08:38:23;;;;;;;27.42;13.05;;;3.40;99.90;;;;;;4930219;29;20031;-71
2020/12/19 08:40:51;;;;;;;26.48;13.68;;;3.50;99.90;;;;;;4924912;29;20723;-71
2020/12/19 08:43:18;;;;;;;23.25;10.95;;;3.60;99.90;;;;;;4929425;29;20032;-72
2020/12/19 08:45:49;;;;;;;23.85;10.13;;;3.70;99.90;;;;;;4925068;29;20131;-70
2020/12/19 08:48:17;;;;;;;21.33;10.32;;;3.80;99.90;;;;;;4944168;28;20032;-70
2020/12/19 08:50:44;;;;;;;22.05;9.82;;;3.80;99.90;;;;;;4923065;29;20153;-70
2020/12/19 08:53:21;;;;;;;21.48;10.00;;;3.90;99.90;;;;;;4928781;29;20563;-70
2020/12/19 08:55:48;;;;;;;17.60;9.48;;;3.90;99.90;;;;;;4937347;29;20119;-70
2020/12/19 08:58:40;;;;;;;19.60;9.75;;;4.00;99.90;;;;;;4928753;29;20913;-72
2020/12/19 09:01:16;;;;;;;22.40;11.40;;;4.10;99.90;;;;;;4926104;29;20175;-73
2020/12/19 09:03:43;;;;;;;19.10;10.13;;;4.10;99.90;;;;;;4929554;29;20046;-71
2020/12/19 09:06:14;;;;;;;23.40;10.15;;;4.10;99.90;;;;;;4928255;29;20052;-70
2020/12/19 09:08:47;;;;;;;16.98;9.77;;;4.20;99.90;;;;;;4944580;28;20063;-70
2020/12/19 09:11:29;;;;;;;20.25;10.55;;;4.20;99.90;;;;;;4928477;29;20032;-71
2020/12/19 09:14:05;;;;;;;18.70;9.82;;;4.30;99.90;;;;;;4923583;29;20040;-71
2020/12/19 09:16:32;;;;;;;19.77;9.63;;;4.40;99.90;;;;;;4926922;29;20123;-70
2020/12/19 09:18:58;;;;;;;17.83;8.75;;;4.40;99.90;;;;;;4928923;29;20047;-71
2020/12/19 09:21:24;;;;;;;14.70;8.25;;;4.50;99.90;;;;;;4927553;29;20400;-70
2020/12/19 09:23:49;;;;;;;16.42;9.02;;;4.50;99.90;;;;;;4929132;29;20040;-70
2020/12/19 09:26:15;;;;;;;16.52;8.43;;;4.60;99.90;;;;;;4927867;29;20036;-70
2020/12/19 09:28:41;;;;;;;16.83;9.00;;;4.70;99.90;;;;;;4942218;28;20496;-70
2020/12/19 09:31:08;;;;;;;14.77;8.50;;;4.80;99.90;;;;;;4928009;29;20496;-70
2020/12/19 09:33:34;;;;;;;14.15;8.18;;;4.90;99.90;;;;;;4928656;29;20035;-71
2020/12/19 09:35:59;;;;;;;18.90;8.57;;;4.90;99.90;;;;;;4927827;29;20058;-70
2020/12/19 09:38:25;;;;;;;14.98;7.72;;;5.10;99.90;;;;;;4942689;29;20110;-70
2020/12/19 09:40:51;;;;;;;14.05;7.38;;;5.10;99.90;;;;;;4942371;29;20492;-70
2020/12/19 09:43:16;;;;;;;15.68;8.60;;;5.20;99.90;;;;;;4927832;29;20027;-70
2020/12/19 09:45:42;;;;;;;13.98;7.32;;;5.30;99.90;;;;;;4922861;29;20496;-73
2020/12/19 09:48:08;;;;;;;13.88;7.75;;;5.30;99.90;;;;;;4942868;28;20036;-72
2020/12/19 09:50:34;;;;;;;13.13;7.03;;;5.50;99.90;;;;;;4927545;29;20488;-73
2020/12/19 09:53:00;;;;;;;13.95;7.15;;;5.60;99.90;;;;;;4941246;28;20409;-72
2020/12/19 09:55:27;;;;;;;15.55;7.78;;;5.70;99.90;;;;;;4926553;29;20035;-72
2020/12/19 09:57:54;;;;;;;14.32;7.13;;;5.80;99.90;;;;;;4927421;29;20139;-72
2020/12/19 10:00:19;;;;;;;12.10;6.65;;;5.90;99.90;;;;;;4927673;29;20131;-73
2020/12/19 10:02:50;;;;;;;12.70;6.43;;;6.00;99.90;;;;;;4928133;29;20692;-72
2020/12/19 10:05:16;;;;;;;11.63;6.57;;;6.00;99.90;;;;;;4925968;29;20046;-72
2020/12/19 10:07:42;;;;;;;11.00;6.28;;;6.20;99.90;;;;;;4928165;29;20038;-72
2020/12/19 10:10:08;;;;;;;10.80;5.97;;;6.30;99.90;;;;;;4927403;29;20031;-72
2020/12/19 10:12:35;;;;;;;12.27;6.15;;;6.30;99.90;;;;;;4927217;29;20516;-72
2020/12/19 10:15:01;;;;;;;13.55;6.30;;;6.60;99.90;;;;;;4927135;29;20127;-75
2020/12/19 10:17:27;;;;;;;11.75;6.53;;;6.50;99.90;;;;;;4928200;29;20059;-72
2020/12/19 10:19:53;;;;;;;11.57;6.03;;;6.50;99.90;;;;;;4943648;28;20027;-73
2020/12/19 10:22:19;;;;;;;10.25;5.70;;;6.60;99.90;;;;;;4927717;29;20090;-72
2020/12/19 10:24:44;;;;;;;10.55;6.07;;;6.60;99.90;;;;;;4942600;29;20055;-72
2020/12/19 10:27:10;;;;;;;10.27;5.70;;;6.70;99.90;;;;;;4927291;29;20633;-73
2020/12/19 10:29:36;;;;;;;11.02;5.90;;;6.60;99.90;;;;;;4927625;29;20053;-73
2020/12/19 10:32:06;;;;;;;8.95;5.40;;;6.80;99.90;;;;;;4927839;29;20039;-73
2020/12/19 10:34:32;;;;;;;10.32;5.80;;;6.90;99.90;;;;;;4927301;29;20075;-73
2020/12/19 10:36:58;;;;;;;7.97;4.75;;;7.10;99.90;;;;;;4926959;29;20153;-73
2020/12/19 10:39:23;;;;;;;9.10;4.95;;;7.10;99.90;;;;;;4925888;28;20038;-73
2020/12/19 10:41:49;;;;;;;9.13;4.97;;;7.20;99.90;;;;;;4941853;28;20098;-73
2020/12/19 10:44:16;;;;;;;10.52;5.32;;;7.40;99.90;;;;;;4926747;29;20064;-74
2020/12/19 10:46:42;;;;;;;8.75;5.18;;;7.20;99.90;;;;;;4934598;29;20035;-72
2020/12/19 10:49:08;;;;;;;8.82;5.05;;;7.40;99.90;;;;;;4926921;29;20813;-73
2020/12/19 10:51:34;;;;;;;8.80;5.20;;;7.40;99.90;;;;;;4926353;29;20039;-73
2020/12/19 10:53:59;;;;;;;9.35;5.40;;;7.50;99.90;;;;;;4941364;29;20527;-74
2020/12/19 10:56:25;;;;;;;9.75;5.32;;;7.50;99.90;;;;;;4939785;29;20036;-72
2020/12/19 10:58:51;;;;;;;10.15;4.90;;;7.50;99.90;;;;;;4926995;29;20135;-74
2020/12/19 11:01:17;;;;;;;8.25;4.72;;;7.60;99.90;;;;;;4939319;28;20666;-76
2020/12/19 11:03:44;;;;;;;8.23;4.82;;;7.50;99.90;;;;;;4924832;29;20039;-75
2020/12/19 11:06:23;;;;;;;8.52;4.65;;;7.70;99.90;;;;;;4925686;29;20051;-73
2020/12/19 11:08:50;;;;;;;7.22;4.10;;;7.80;99.90;;;;;;4926891;29;20044;-75
2020/12/19 11:11:20;;;;;;;7.93;4.72;;;7.90;99.90;;;;;;4926094;29;20055;-72
2020/12/19 11:13:46;;;;;;;9.88;5.20;;;7.90;99.90;;;;;;4940798;29;20110;-72
2020/12/19 11:16:26;;;;;;;7.47;4.30;;;8.00;99.90;;;;;;4939810;28;20039;-73
2020/12/19 11:18:53;;;;;;;7.07;3.97;;;8.00;99.90;;;;;;4934894;29;20059;-74
2020/12/19 11:21:19;;;;;;;6.70;4.03;;;8.00;99.90;;;;;;4940208;28;20135;-72
2020/12/19 11:23:46;;;;;;;8.50;4.97;;;7.90;99.90;;;;;;4926615;29;20520;-73
2020/12/19 11:26:12;;;;;;;10.57;4.93;;;7.90;99.90;;;;;;4939997;28;20027;-73
2020/12/19 11:28:39;;;;;;;7.28;4.20;;;8.10;99.90;;;;;;4940403;28;20032;-71
2020/12/19 11:31:06;;;;;;;27.67;13.82;;;8.30;99.90;;;;;;4941281;29;20035;-75
2020/12/19 11:33:32;;;;;;;7.47;4.45;;;8.40;99.90;;;;;;4939590;29;20091;-75
2020/12/19 11:35:59;;;;;;;7.28;3.90;;;8.40;99.90;;;;;;4926487;29;20036;-75
2020/12/19 11:38:25;;;;;;;7.78;4.45;;;8.70;99.90;;;;;;4940574;28;20035;-75
2020/12/19 11:40:51;;;;;;;7.43;4.30;;;8.70;99.90;;;;;;4925878;29;20035;-75
2020/12/19 11:43:17;;;;;;;7.20;3.80;;;8.70;99.90;;;;;;4925691;29;20067;-75
2020/12/19 11:45:42;;;;;;;6.68;3.70;;;8.50;99.90;;;;;;4919226;29;20403;-74
2020/12/19 11:48:08;;;;;;;7.07;4.30;;;8.50;99.90;;;;;;4926219;29;20035;-74
2020/12/19 11:50:34;;;;;;;7.18;3.60;;;8.70;99.90;;;;;;4940943;29;20047;-75
2020/12/19 11:53:00;;;;;;;7.70;4.00;;;8.70;99.90;;;;;;4926058;29;20036;-73
2020/12/19 11:55:25;;;;;;;5.82;3.72;;;8.90;99.90;;;;;;4924794;29;20043;-78
2020/12/19 11:57:51;;;;;;;7.53;3.17;;;9.30;99.90;;;;;;4924958;29;20024;-74
2020/12/19 12:00:17;;;;;;;7.90;3.60;;;9.20;99.90;;;;;;4925169;29;20035;-74
2020/12/19 12:02:42;;;;;;;6.25;3.80;;;9.20;99.90;;;;;;4927190;29;20039;-75
2020/12/19 12:05:08;;;;;;;4.75;3.10;;;9.30;99.90;;;;;;4928960;29;20035;-75
2020/12/19 12:07:34;;;;;;;5.32;3.50;;;9.50;99.90;;;;;;4930792;29;20432;-74
2020/12/19 12:09:59;;;;;;;9.32;3.33;;;9.70;99.90;;;;;;4933288;29;20420;-71
2020/12/19 12:12:25;;;;;;;6.55;3.40;;;9.70;99.90;;;;;;4930843;28;20119;-74
2020/12/19 12:14:51;;;;;;;10.05;4.28;;;9.50;99.90;;;;;;4927598;29;20395;-75
2020/12/19 12:17:16;;;;;;;6.35;3.83;;;9.40;99.90;;;;;;4944982;28;20484;-73
2020/12/19 12:19:42;;;;;;;6.10;4.03;;;9.60;99.90;;;;;;4936256;28;20704;-73
2020/12/19 12:22:08;;;;;;;5.70;3.30;;;9.80;99.90;;;;;;4944880;28;20039;-73
2020/12/19 12:24:33;;;;;;;7.90;3.47;;;9.90;99.90;;;;;;4944978;28;20050;-73
2020/12/19 12:26:59;;;;;;;5.72;3.42;;;9.80;99.90;;;;;;4943839;29;20039;-73
2020/12/19 12:29:25;;;;;;;6.43;3.67;;;9.60;99.90;;;;;;4944609;29;20095;-73
2020/12/19 12:31:51;;;;;;;8.25;3.88;;;9.50;99.90;;;;;;4929758;29;20055;-74
2020/12/19 12:34:16;;;;;;;5.78;3.65;;;9.10;99.90;;;;;;4943495;28;20032;-73
2020/12/19 12:36:42;;;;;;;8.52;3.95;;;9.20;99.90;;;;;;4943238;29;20737;-74
2020/12/19 12:39:10;;;;;;;6.03;3.90;;;9.20;99.90;;;;;;4929584;29;20099;-74
2020/12/19 12:41:36;;;;;;;7.75;3.85;;;9.20;99.90;;;;;;4929114;29;20143;-74
2020/12/19 12:44:02;;;;;;;6.32;3.85;;;9.00;99.90;;;;;;4928445;29;20950;-73